createdAt,value
2019-05-07T00:00:59.017Z,102055.16
2019-05-07T00:01:59.712Z,102054.39
2019-05-07T00:03:00.620Z,102054.23
2019-05-07T00:04:02.004Z,102053.50
2019-05-07T00:05:02.642Z,102052.91
2019-05-07T00:06:02.769Z,102052.73
2019-05-07T00:07:02.531Z,102051.88
2019-05-07T00:08:03.215Z,102052.22
2019-05-07T00:09:03.768Z,102052.72
2019-05-07T00:10:05.697Z,102052.16
2019-05-07T00:11:06.673Z,102052.33
2019-05-07T00:12:07.548Z,102052.33
2019-05-07T00:13:08.286Z,102052.41
2019-05-07T00:14:08.488Z,102051.64
2019-05-07T00:15:09.032Z,102051.31
2019-05-07T00:16:08.734Z,102050.75
2019-05-07T00:17:09.944Z,102050.49
2019-05-07T00:18:09.982Z,102050.49
2019-05-07T00:19:12.820Z,102050.33
2019-05-07T00:20:12.712Z,102049.65
2019-05-07T00:21:12.694Z,102049.58
2019-05-07T00:22:12.589Z,102049.63
2019-05-07T00:23:12.802Z,102049.12
2019-05-07T00:24:14.508Z,102049.22
2019-05-07T00:25:15.471Z,102048.71
2019-05-07T00:26:17.305Z,102048.30
2019-05-07T00:27:17.098Z,102048.11
2019-05-07T00:28:17.732Z,102048.12
2019-05-07T00:29:18.463Z,102047.77
2019-05-07T00:30:19.206Z,102047.27
2019-05-07T00:31:19.872Z,102046.91
2019-05-07T00:32:22.059Z,102046.42
2019-05-07T00:33:19.817Z,102045.98
2019-05-07T00:34:21.966Z,102044.62
2019-05-07T00:35:22.553Z,102044.13
2019-05-07T00:36:23.055Z,102043.60
2019-05-07T00:37:22.315Z,102042.52
2019-05-07T00:38:24.113Z,102041.43
2019-05-07T00:39:24.913Z,102040.64
2019-05-07T00:39:33.440Z,102032.33
2019-05-07T00:40:34.867Z,102028.17
2019-05-07T00:41:34.864Z,102027.84
2019-05-07T00:42:35.774Z,102028.25
2019-05-07T00:43:36.556Z,102028.36
2019-05-07T00:44:37.410Z,102028.36
2019-05-07T00:45:38.167Z,102027.94
2019-05-07T00:46:39.082Z,102028.61
2019-05-07T00:47:39.968Z,102028.34
2019-05-07T00:48:42.235Z,102027.92
2019-05-07T00:49:40.183Z,102028.26
2019-05-07T00:50:42.140Z,102027.53
2019-05-07T00:51:42.510Z,102026.94
2019-05-07T00:52:43.109Z,102026.25
2019-05-07T00:53:43.649Z,102026.70
2019-05-07T00:54:44.765Z,102026.35
2019-05-07T00:55:45.616Z,102026.55
2019-05-07T00:56:46.516Z,102026.22
2019-05-07T00:57:47.403Z,102026.31
2019-05-07T00:58:48.289Z,102025.71
2019-05-07T00:59:49.222Z,102025.64
2019-05-07T01:00:49.323Z,102025.66
2019-05-07T01:01:49.360Z,102025.66
2019-05-07T01:02:48.434Z,102025.84
2019-05-07T01:03:50.298Z,102026.61
2019-05-07T01:04:53.005Z,102026.56
2019-05-07T01:05:52.491Z,102026.73
2019-05-07T01:06:50.454Z,102026.81
2019-05-07T01:07:52.894Z,102026.73
2019-05-07T01:08:52.558Z,102026.84
2019-05-07T01:09:52.414Z,102026.84
2019-05-07T01:10:52.820Z,102027.34
2019-05-07T01:11:52.598Z,102026.75
2019-05-07T01:12:53.314Z,102026.84
2019-05-07T01:13:55.007Z,102026.50
2019-05-07T01:14:55.717Z,102026.42
2019-05-07T01:15:56.538Z,102026.59
2019-05-07T01:16:57.378Z,102026.09
2019-05-07T01:17:58.124Z,102025.58
2019-05-07T01:18:58.827Z,102025.67
2019-05-07T01:19:59.640Z,102025.00
2019-05-07T01:21:02.422Z,102025.06
2019-05-07T01:21:59.929Z,102025.15
2019-05-07T01:23:02.651Z,102025.48
2019-05-07T01:24:03.183Z,102025.66
2019-05-07T01:25:02.448Z,102025.66
2019-05-07T01:26:03.146Z,102025.74
2019-05-07T01:27:03.716Z,102025.07
2019-05-07T01:28:05.405Z,102024.95
2019-05-07T01:29:06.372Z,102024.23
2019-05-07T01:30:07.289Z,102023.97
2019-05-07T01:31:07.070Z,102023.66
2019-05-07T01:32:08.849Z,102022.90
2019-05-07T01:33:12.156Z,102022.80
2019-05-07T01:34:09.627Z,102022.48
2019-05-07T01:35:12.961Z,102022.33
2019-05-07T01:36:13.098Z,102022.41
2019-05-07T01:37:12.570Z,102021.55
2019-05-07T01:38:12.752Z,102021.50
2019-05-07T01:39:13.100Z,102021.14
2019-05-07T01:40:12.933Z,102020.89
2019-05-07T01:41:14.673Z,102020.41
2019-05-07T01:41:23.192Z,102013.36
2019-05-07T01:42:24.848Z,102011.00
2019-05-07T01:43:24.953Z,102010.74
2019-05-07T01:44:25.738Z,102010.84
2019-05-07T01:45:26.512Z,102011.53
2019-05-07T01:46:27.287Z,102011.44
2019-05-07T01:47:28.183Z,102011.62
2019-05-07T01:48:28.251Z,102011.53
2019-05-07T01:49:29.222Z,102011.95
2019-05-07T01:50:32.117Z,102012.78
2019-05-07T01:51:29.750Z,102012.56
2019-05-07T01:52:33.157Z,102013.29
2019-05-07T01:53:32.349Z,102013.46
2019-05-07T01:54:33.259Z,102013.72
2019-05-07T01:55:31.994Z,102013.22
2019-05-07T01:56:33.158Z,102013.13
2019-05-07T01:57:32.861Z,102013.45
2019-05-07T01:58:33.496Z,102012.87
2019-05-07T01:59:35.384Z,102012.53
2019-05-07T02:00:35.483Z,102012.36
2019-05-07T02:01:35.970Z,102012.53
2019-05-07T02:02:35.533Z,102012.79
2019-05-07T02:03:37.372Z,102012.79
2019-05-07T02:04:38.131Z,102012.87
2019-05-07T02:05:38.953Z,102013.03
2019-05-07T02:06:39.935Z,102013.11
2019-05-07T02:07:42.761Z,102012.72
2019-05-07T02:08:42.290Z,102012.38
2019-05-07T02:09:42.463Z,102012.22
2019-05-07T02:10:42.805Z,102012.61
2019-05-07T02:11:42.773Z,102012.44
2019-05-07T02:12:43.997Z,102012.36
2019-05-07T02:13:44.838Z,102012.03
2019-05-07T02:14:45.791Z,102012.20
2019-05-07T02:15:57.406Z,102012.20
2019-05-07T02:16:45.757Z,102012.44
2019-05-07T02:17:46.890Z,102011.62
2019-05-07T02:18:48.736Z,102012.47
2019-05-07T02:19:48.601Z,102011.87
2019-05-07T02:20:49.553Z,102011.61
2019-05-07T02:21:50.330Z,102011.95
2019-05-07T02:22:53.178Z,102012.23
2019-05-07T02:23:52.316Z,102012.22
2019-05-07T02:24:52.411Z,102012.49
2019-05-07T02:25:52.698Z,102013.33
2019-05-07T02:26:52.971Z,102013.33
2019-05-07T02:27:54.793Z,102013.55
2019-05-07T02:28:55.541Z,102014.16
2019-05-07T02:29:56.396Z,102014.75
2019-05-07T02:30:57.259Z,102014.97
2019-05-07T02:31:58.045Z,102014.63
2019-05-07T02:32:58.749Z,102015.23
2019-05-07T02:33:58.540Z,102015.58
2019-05-07T02:34:59.717Z,102015.63
2019-05-07T02:36:03.032Z,102015.63
2019-05-07T02:36:59.736Z,102015.30
2019-05-07T02:38:03.189Z,102016.06
2019-05-07T02:39:03.786Z,102015.97
2019-05-07T02:40:04.433Z,102016.23
2019-05-07T02:41:03.084Z,102016.23
2019-05-07T02:42:03.809Z,102015.89
2019-05-07T02:43:04.286Z,102015.55
2019-05-07T02:43:14.207Z,102021.09
2019-05-07T02:44:14.362Z,102011.56
2019-05-07T02:45:14.926Z,102011.30
2019-05-07T02:46:26.465Z,102010.97
2019-05-07T02:47:16.648Z,102011.81
2019-05-07T02:48:18.482Z,102011.55
2019-05-07T02:49:18.698Z,102011.89
2019-05-07T02:50:22.602Z,102011.83
2019-05-07T02:51:19.471Z,102011.73
2019-05-07T02:52:22.926Z,102012.24
2019-05-07T02:53:22.527Z,102011.98
2019-05-07T02:54:23.789Z,102011.50
2019-05-07T02:55:23.174Z,102011.06
2019-05-07T02:56:23.628Z,102010.75
2019-05-07T02:57:23.963Z,102009.94
2019-05-07T02:58:23.978Z,102010.01
2019-05-07T02:59:24.032Z,102009.83
2019-05-07T03:00:24.944Z,102009.94
2019-05-07T03:01:25.811Z,102009.42
2019-05-07T03:02:26.457Z,102009.50
2019-05-07T03:03:27.179Z,102009.02
2019-05-07T03:04:28.144Z,102008.93
2019-05-07T03:05:28.983Z,102008.45
2019-05-07T03:06:29.828Z,102008.19
2019-05-07T03:07:33.381Z,102007.78
2019-05-07T03:08:32.960Z,102007.55
2019-05-07T03:09:32.868Z,102007.61
2019-05-07T03:10:33.979Z,102006.87
2019-05-07T03:11:33.941Z,102006.13
2019-05-07T03:12:33.758Z,102005.39
2019-05-07T03:13:34.263Z,102004.97
2019-05-07T03:14:36.107Z,102004.67
2019-05-07T03:15:36.916Z,102004.16
2019-05-07T03:16:43.717Z,102003.69
2019-05-07T03:17:37.518Z,102002.53
2019-05-07T03:18:39.348Z,102002.20
2019-05-07T03:19:42.789Z,102001.89
2019-05-07T03:20:42.817Z,102000.81
2019-05-07T03:21:44.089Z,102000.27
2019-05-07T03:22:42.826Z,102000.19
2019-05-07T03:23:43.011Z,102000.11
2019-05-07T03:24:43.779Z,101999.61
2019-05-07T03:25:43.864Z,101999.28
2019-05-07T03:26:45.803Z,101998.70
2019-05-07T03:27:46.624Z,101998.56
2019-05-07T03:28:47.383Z,101998.38
2019-05-07T03:29:48.236Z,101997.73
2019-05-07T03:30:49.036Z,101997.13
2019-05-07T03:31:49.658Z,101997.21
2019-05-07T03:32:55.655Z,101997.66
2019-05-07T03:33:55.401Z,101997.14
2019-05-07T03:34:51.009Z,101997.39
2019-05-07T03:35:56.004Z,101997.23
2019-05-07T03:36:56.386Z,101997.15
2019-05-07T03:37:54.641Z,101997.48
2019-05-07T03:38:53.840Z,101997.26
2019-05-07T03:39:53.933Z,101997.66
2019-05-07T03:40:54.476Z,101997.82
2019-05-07T03:41:56.137Z,101998.08
2019-05-07T03:42:56.861Z,101997.98
2019-05-07T03:43:57.871Z,101997.98
2019-05-07T03:44:58.784Z,101998.66
2019-05-07T03:45:58.802Z,101998.94
2019-05-07T03:47:06.038Z,101998.68
2019-05-07T03:47:58.872Z,101998.59
2019-05-07T03:49:03.834Z,101998.33
2019-05-07T03:50:03.293Z,101998.27
2019-05-07T03:51:03.384Z,101998.02
2019-05-07T03:52:03.832Z,101997.92
2019-05-07T03:53:02.731Z,101997.92
2019-05-07T03:54:03.180Z,101997.59
2019-05-07T03:55:03.941Z,101997.85
2019-05-07T03:56:04.647Z,101997.61
2019-05-07T03:57:11.355Z,101996.98
2019-05-07T03:58:05.856Z,101997.25
2019-05-07T03:59:07.816Z,101997.41
2019-05-07T03:59:16.915Z,101994.30
2019-05-07T04:00:18.673Z,101989.95
2019-05-07T04:01:19.401Z,101990.20
2019-05-07T04:02:23.439Z,101990.11
2019-05-07T04:03:24.478Z,101989.96
2019-05-07T04:04:22.983Z,101990.20
2019-05-07T04:05:23.226Z,101990.38
2019-05-07T04:06:23.339Z,101990.23
2019-05-07T04:07:23.474Z,101990.05
2019-05-07T04:08:23.972Z,101989.56
2019-05-07T04:09:24.319Z,101989.64
2019-05-07T04:10:24.872Z,101989.16
2019-05-07T04:11:26.659Z,101989.40
2019-05-07T04:12:26.271Z,101988.72
2019-05-07T04:13:27.039Z,101988.14
2019-05-07T04:14:28.836Z,101988.33
2019-05-07T04:15:32.739Z,101987.81
2019-05-07T04:16:29.487Z,101987.33
2019-05-07T04:17:33.927Z,101986.26
2019-05-07T04:18:32.977Z,101985.73
2019-05-07T04:19:32.879Z,101985.48
2019-05-07T04:20:33.340Z,101984.91
2019-05-07T04:21:34.390Z,101984.77
2019-05-07T04:22:34.564Z,101984.75
2019-05-07T04:23:34.515Z,101984.94
2019-05-07T04:24:33.804Z,101985.09
2019-05-07T04:25:34.701Z,101984.77
2019-05-07T04:26:34.587Z,101985.36
2019-05-07T04:27:36.329Z,101984.80
2019-05-07T04:28:38.186Z,101984.46
2019-05-07T04:29:37.632Z,101984.55
2019-05-07T04:30:37.673Z,101984.50
2019-05-07T04:31:38.057Z,101984.58
2019-05-07T04:32:37.751Z,101984.59
2019-05-07T04:33:39.638Z,101984.78
2019-05-07T04:34:40.334Z,101984.84
2019-05-07T04:35:43.444Z,101985.29
2019-05-07T04:36:43.722Z,101986.13
2019-05-07T04:37:42.787Z,101986.13
2019-05-07T04:38:43.981Z,101986.52
2019-05-07T04:39:42.994Z,101986.86
2019-05-07T04:40:43.658Z,101987.30
2019-05-07T04:41:43.833Z,101987.47
2019-05-07T04:42:44.482Z,101987.72
2019-05-07T04:43:46.289Z,101988.30
2019-05-07T04:44:47.121Z,101988.80
2019-05-07T04:45:46.852Z,101989.89
2019-05-07T04:46:48.720Z,101990.49
2019-05-07T04:47:49.428Z,101990.47
2019-05-07T04:48:52.831Z,101990.98
2019-05-07T04:49:49.931Z,101990.71
2019-05-07T04:50:54.212Z,101990.98
2019-05-07T04:51:52.937Z,101991.30
2019-05-07T04:52:54.085Z,101991.48
2019-05-07T04:53:54.113Z,101991.94
2019-05-07T04:54:53.196Z,101992.05
2019-05-07T04:55:54.938Z,101992.70
2019-05-07T04:56:55.634Z,101993.11
2019-05-07T04:57:56.365Z,101993.35
2019-05-07T04:58:57.360Z,101993.59
2019-05-07T04:59:58.040Z,101993.83
2019-05-07T05:00:58.912Z,101994.49
2019-05-07T05:01:58.572Z,101994.91
2019-05-07T05:03:03.129Z,101995.41
2019-05-07T05:04:17.508Z,101995.73
2019-05-07T05:05:03.408Z,101995.89
2019-05-07T05:06:02.627Z,101995.89
2019-05-07T05:07:02.786Z,101996.11
2019-05-07T05:08:03.889Z,101996.69
2019-05-07T05:09:03.211Z,101997.50
2019-05-07T05:10:03.869Z,101997.50
2019-05-07T05:11:04.633Z,101997.83
2019-05-07T05:12:05.994Z,101998.05
2019-05-07T05:13:06.790Z,101998.88
2019-05-07T05:14:08.182Z,101999.76
2019-05-07T05:15:06.827Z,102000.41
2019-05-07T05:16:08.745Z,102000.89
2019-05-07T05:16:19.292Z,102012.75
2019-05-07T05:17:22.432Z,102007.37
2019-05-07T05:18:21.960Z,102007.70
2019-05-07T05:19:22.981Z,102008.32
2019-05-07T05:20:22.531Z,102008.40
2019-05-07T05:21:24.302Z,102008.81
2019-05-07T05:22:24.462Z,102008.92
2019-05-07T05:23:25.434Z,102009.17
2019-05-07T05:24:25.423Z,102009.66
2019-05-07T05:25:26.103Z,102010.00
2019-05-07T05:26:26.371Z,102010.27
2019-05-07T05:27:29.872Z,102010.60
2019-05-07T05:28:26.501Z,102011.35
2019-05-07T05:29:28.288Z,102012.52
2019-05-07T05:30:29.042Z,102012.47
2019-05-07T05:31:29.997Z,102012.78
2019-05-07T05:32:32.468Z,102012.97
2019-05-07T05:33:32.250Z,102013.37
2019-05-07T05:34:32.932Z,102013.77
2019-05-07T05:35:32.181Z,102014.10
2019-05-07T05:36:33.002Z,102014.26
2019-05-07T05:37:32.585Z,102014.34
2019-05-07T05:38:34.422Z,102015.15
2019-05-07T05:39:34.453Z,102015.12
2019-05-07T05:40:35.181Z,102015.03
2019-05-07T05:41:37.916Z,102014.84
2019-05-07T05:42:35.740Z,102014.37
2019-05-07T05:43:37.504Z,102014.42
2019-05-07T05:44:38.195Z,102014.07
2019-05-07T05:45:39.936Z,102014.45
2019-05-07T05:46:39.939Z,102014.26
2019-05-07T05:47:42.887Z,102014.07
2019-05-07T05:48:39.620Z,102013.72
2019-05-07T05:49:42.915Z,102013.02
2019-05-07T05:50:42.278Z,102012.84
2019-05-07T05:51:42.987Z,102012.48
2019-05-07T05:52:42.506Z,102011.53
2019-05-07T05:53:43.381Z,102011.16
2019-05-07T05:54:43.160Z,102010.88
2019-05-07T05:55:44.849Z,102011.12
2019-05-07T05:56:44.859Z,102010.65
2019-05-07T05:57:45.279Z,102010.81
2019-05-07T05:58:45.285Z,102010.51
2019-05-07T05:59:51.183Z,102010.23
2019-05-07T06:00:45.849Z,102009.69
2019-05-07T06:01:47.617Z,102009.50
2019-05-07T06:02:48.280Z,102009.31
2019-05-07T06:03:48.264Z,102009.34
2019-05-07T06:04:48.939Z,102009.08
2019-05-07T06:05:49.738Z,102009.14
2019-05-07T06:06:49.740Z,102009.52
2019-05-07T06:07:52.088Z,102009.23
2019-05-07T06:08:51.934Z,102008.77
2019-05-07T06:09:52.694Z,102008.91
2019-05-07T06:10:51.910Z,102008.67
2019-05-07T06:11:52.003Z,102008.66
2019-05-07T06:12:52.324Z,102008.27
2019-05-07T06:13:53.122Z,102008.31
2019-05-07T06:14:53.960Z,102007.77
2019-05-07T06:15:53.374Z,102007.58
2019-05-07T06:16:53.167Z,102007.28
2019-05-07T06:17:54.921Z,102007.00
2019-05-07T06:18:55.627Z,102006.64
2019-05-07T06:19:04.676Z,102009.63
2019-05-07T06:20:06.519Z,102000.05
2019-05-07T06:21:06.509Z,102000.22
2019-05-07T06:22:07.192Z,102000.05
2019-05-07T06:23:08.163Z,102000.22
2019-05-07T06:24:09.139Z,102000.22
2019-05-07T06:25:09.041Z,102000.55
2019-05-07T06:26:08.452Z,101999.99
2019-05-07T06:27:09.172Z,102000.15
2019-05-07T06:28:09.859Z,101999.84
2019-05-07T06:29:11.951Z,101999.83
2019-05-07T06:30:12.198Z,101999.85
2019-05-07T06:31:12.769Z,101999.85
2019-05-07T06:32:13.124Z,101999.77
2019-05-07T06:33:13.020Z,101999.59
2019-05-07T06:34:13.206Z,101999.85
2019-05-07T06:35:13.547Z,102000.08
2019-05-07T06:36:14.596Z,101999.73
2019-05-07T06:37:15.691Z,102000.08
2019-05-07T06:38:16.102Z,102000.17
2019-05-07T06:39:16.787Z,102000.48
2019-05-07T06:40:19.623Z,102000.91
2019-05-07T06:41:17.324Z,102001.25
2019-05-07T06:42:19.033Z,102001.17
2019-05-07T06:43:21.864Z,102001.22
2019-05-07T06:44:19.138Z,102002.00
2019-05-07T06:45:19.522Z,102001.64
2019-05-07T06:46:20.426Z,102001.28
2019-05-07T06:47:22.184Z,102001.45
2019-05-07T06:48:34.680Z,102001.04
2019-05-07T06:49:22.353Z,102001.44
2019-05-07T06:50:22.828Z,102001.00
2019-05-07T06:51:22.823Z,102000.98
2019-05-07T06:52:23.310Z,102001.05
2019-05-07T06:53:23.509Z,102000.62
2019-05-07T06:54:25.385Z,102001.03
2019-05-07T06:55:26.487Z,102001.27
2019-05-07T06:56:27.240Z,102001.81
2019-05-07T06:57:27.604Z,102002.15
2019-05-07T06:58:27.971Z,102002.38
2019-05-07T06:59:32.577Z,102002.61
2019-05-07T07:00:28.014Z,102003.00
2019-05-07T07:01:32.101Z,102002.96
2019-05-07T07:02:29.724Z,102002.94
2019-05-07T07:03:32.748Z,102003.00
2019-05-07T07:04:32.572Z,102003.02
2019-05-07T07:05:33.028Z,102003.30
2019-05-07T07:06:32.348Z,102003.11
2019-05-07T07:07:37.385Z,102003.31
2019-05-07T07:08:33.857Z,102003.19
2019-05-07T07:09:35.478Z,102003.14
2019-05-07T07:10:35.913Z,102003.25
2019-05-07T07:11:35.995Z,102002.64
2019-05-07T07:12:35.643Z,102002.41
2019-05-07T07:13:37.280Z,102002.14
2019-05-07T07:14:37.886Z,102002.30
2019-05-07T07:15:38.512Z,102002.59
2019-05-07T07:16:39.164Z,102002.76
2019-05-07T07:17:41.894Z,102002.80
2019-05-07T07:18:51.329Z,102002.94
2019-05-07T07:19:39.762Z,102003.22
2019-05-07T07:20:42.996Z,102002.66
2019-05-07T07:21:42.181Z,102002.45
2019-05-07T07:22:42.672Z,102002.15
2019-05-07T07:23:43.473Z,102001.09
2019-05-07T07:24:45.290Z,102000.25
2019-05-07T07:25:45.353Z,101999.80
2019-05-07T07:26:46.183Z,101998.73
2019-05-07T07:27:47.019Z,101998.17
2019-05-07T07:27:54.551Z,101987.38
2019-05-07T07:28:56.356Z,101978.02
2019-05-07T07:29:56.750Z,101978.28
2019-05-07T07:30:57.146Z,101978.53
2019-05-07T07:31:56.802Z,101978.64
2019-05-07T07:32:58.431Z,101978.41
2019-05-07T07:33:57.593Z,101978.31
2019-05-07T07:34:59.516Z,101978.41
2019-05-07T07:36:02.335Z,101978.55
2019-05-07T07:37:06.099Z,101977.95
2019-05-07T07:37:59.894Z,101977.56
2019-05-07T07:39:03.615Z,101976.94
2019-05-07T07:40:01.961Z,101977.06
2019-05-07T07:41:03.011Z,101976.86
2019-05-07T07:42:03.009Z,101976.05
2019-05-07T07:43:06.947Z,101976.16
2019-05-07T07:44:03.606Z,101975.96
2019-05-07T07:45:05.076Z,101975.64
2019-05-07T07:46:05.674Z,101975.09
2019-05-07T07:47:06.344Z,101975.11
2019-05-07T07:48:07.222Z,101974.72
2019-05-07T07:49:14.020Z,101974.29
2019-05-07T07:50:07.922Z,101973.96
2019-05-07T07:51:09.656Z,101973.60
2019-05-07T07:52:09.494Z,101972.91
2019-05-07T07:53:12.933Z,101972.52
2019-05-07T07:54:12.537Z,101972.08
2019-05-07T07:55:12.623Z,101971.84
2019-05-07T07:56:12.117Z,101971.91
2019-05-07T07:57:12.602Z,101971.45
2019-05-07T07:58:12.102Z,101971.03
2019-05-07T07:59:12.610Z,101971.02
2019-05-07T08:00:12.757Z,101970.94
2019-05-07T08:01:13.947Z,101971.27
2019-05-07T08:02:14.801Z,101970.58
2019-05-07T08:03:15.659Z,101971.08
2019-05-07T08:04:15.507Z,101970.22
2019-05-07T08:05:17.302Z,101969.89
2019-05-07T08:06:18.148Z,101969.66
2019-05-07T08:07:18.352Z,101968.83
2019-05-07T08:08:19.201Z,101968.05
2019-05-07T08:09:22.262Z,101967.50
2019-05-07T08:10:19.189Z,101966.66
2019-05-07T08:11:19.374Z,101965.69
2019-05-07T08:12:22.166Z,101965.05
2019-05-07T08:13:20.099Z,101964.25
2019-05-07T08:14:22.052Z,101963.32
2019-05-07T08:15:24.705Z,101963.16
2019-05-07T08:16:22.244Z,101962.08
2019-05-07T08:17:22.592Z,101961.25
2019-05-07T08:18:22.831Z,101960.55
2019-05-07T08:19:25.233Z,101960.25
2019-05-07T08:20:23.847Z,101959.98
2019-05-07T08:21:25.612Z,101959.63
2019-05-07T08:22:26.278Z,101959.19
2019-05-07T08:23:26.899Z,101958.58
2019-05-07T08:24:27.527Z,101957.99
2019-05-07T08:25:28.190Z,101957.80
2019-05-07T08:26:27.272Z,101957.30
2019-05-07T08:27:29.126Z,101957.20
2019-05-07T08:28:31.943Z,101956.58
2019-05-07T08:28:38.503Z,101954.95
2019-05-07T08:29:39.907Z,101947.05
2019-05-07T08:30:42.018Z,101946.88
2019-05-07T08:31:42.384Z,101946.94
2019-05-07T08:32:42.392Z,101947.24
2019-05-07T08:33:42.577Z,101947.13
2019-05-07T08:34:42.840Z,101947.13
2019-05-07T08:35:42.050Z,101947.53
2019-05-07T08:36:42.467Z,101947.44
2019-05-07T08:37:44.205Z,101947.36
2019-05-07T08:38:44.875Z,101947.33
2019-05-07T08:39:45.717Z,101946.98
2019-05-07T08:40:45.799Z,101947.64
2019-05-07T08:41:46.475Z,101947.80
2019-05-07T08:42:47.195Z,101947.38
2019-05-07T08:43:47.881Z,101947.33
2019-05-07T08:44:48.820Z,101947.58
2019-05-07T08:45:48.608Z,101947.36
2019-05-07T08:46:52.114Z,101947.19
2019-05-07T08:47:50.042Z,101946.84
2019-05-07T08:48:52.906Z,101946.17
2019-05-07T08:49:52.352Z,101945.55
2019-05-07T08:50:52.511Z,101944.63
2019-05-07T08:51:52.669Z,101944.17
2019-05-07T08:52:54.523Z,101943.38
2019-05-07T08:53:55.423Z,101942.65
2019-05-07T08:54:55.594Z,101942.36
2019-05-07T08:55:56.316Z,101941.52
2019-05-07T08:56:56.325Z,101940.92
2019-05-07T08:57:57.108Z,101940.25
2019-05-07T08:58:58.068Z,101939.03
2019-05-07T09:00:01.629Z,101938.08
2019-05-07T09:00:57.771Z,101937.56
2019-05-07T09:01:59.509Z,101937.14
2019-05-07T09:03:01.711Z,101937.06
2019-05-07T09:03:59.938Z,101936.64
2019-05-07T09:05:03.016Z,101936.35
2019-05-07T09:06:02.469Z,101936.36
2019-05-07T09:07:02.684Z,101935.31
2019-05-07T09:08:02.350Z,101934.27
2019-05-07T09:09:02.711Z,101934.23
2019-05-07T09:10:03.583Z,101933.67
2019-05-07T09:11:05.105Z,101933.81
2019-05-07T09:12:05.918Z,101933.19
2019-05-07T09:13:06.756Z,101932.79
2019-05-07T09:14:07.003Z,101932.42
2019-05-07T09:15:07.914Z,101931.77
2019-05-07T09:16:08.559Z,101930.98
2019-05-07T09:17:08.439Z,101930.58
2019-05-07T09:18:09.550Z,101930.44
2019-05-07T09:19:09.582Z,101929.86
2019-05-07T09:20:12.129Z,101929.09
2019-05-07T09:21:12.628Z,101928.11
2019-05-07T09:22:12.487Z,101927.48
2019-05-07T09:23:12.231Z,101926.72
2019-05-07T09:24:12.308Z,101925.61
2019-05-07T09:25:12.940Z,101924.39
2019-05-07T09:26:13.171Z,101922.69
2019-05-07T09:27:13.719Z,101921.46
2019-05-07T09:28:15.500Z,101920.57
2019-05-07T09:29:15.584Z,101920.02
2019-05-07T09:30:17.572Z,101919.14
2019-05-07T09:31:15.630Z,101918.20
2019-05-07T09:32:16.483Z,101916.88
2019-05-07T09:32:25.043Z,101904.04
2019-05-07T09:33:26.548Z,101905.09
2019-05-07T09:34:27.188Z,101904.75
2019-05-07T09:35:27.886Z,101903.82
2019-05-07T09:36:28.641Z,101903.02
2019-05-07T09:37:28.866Z,101902.53
2019-05-07T09:38:28.724Z,101901.88
2019-05-07T09:39:32.463Z,101901.81
2019-05-07T09:40:31.996Z,101900.98
2019-05-07T09:41:32.772Z,101900.36
2019-05-07T09:42:33.319Z,101898.64
2019-05-07T09:43:32.607Z,101898.28
2019-05-07T09:44:32.733Z,101897.70
2019-05-07T09:45:34.559Z,101896.84
2019-05-07T09:46:35.307Z,101896.10
2019-05-07T09:47:35.379Z,101895.44
2019-05-07T09:48:35.551Z,101894.66
2019-05-07T09:49:36.095Z,101893.36
2019-05-07T09:50:36.371Z,101892.48
2019-05-07T09:51:37.254Z,101892.13
2019-05-07T09:52:38.036Z,101891.25
2019-05-07T09:53:37.452Z,101890.47
2019-05-07T09:54:39.123Z,101890.02
2019-05-07T09:55:39.794Z,101889.66
2019-05-07T09:56:42.262Z,101888.19
2019-05-07T09:57:42.451Z,101888.08
2019-05-07T09:58:42.654Z,101887.16
2019-05-07T09:59:42.632Z,101885.98
2019-05-07T10:00:43.132Z,101885.45
2019-05-07T10:01:44.901Z,101884.31
2019-05-07T10:02:45.683Z,101883.68
2019-05-07T10:03:46.605Z,101882.97
2019-05-07T10:04:47.639Z,101882.38
2019-05-07T10:05:47.426Z,101881.41
2019-05-07T10:06:48.228Z,101880.86
2019-05-07T10:07:49.179Z,101879.73
2019-05-07T10:08:49.390Z,101879.12
2019-05-07T10:09:52.297Z,101878.37
2019-05-07T10:10:51.251Z,101877.73
2019-05-07T10:11:52.341Z,101877.05
2019-05-07T10:12:52.548Z,101875.98
2019-05-07T10:13:52.404Z,101875.25
2019-05-07T10:14:52.293Z,101873.84
2019-05-07T10:15:52.617Z,101873.13
2019-05-07T10:16:52.467Z,101872.47
2019-05-07T10:17:52.071Z,101871.75
2019-05-07T10:18:53.330Z,101871.25
2019-05-07T10:19:54.318Z,101870.23
2019-05-07T10:20:54.307Z,101869.91
2019-05-07T10:21:55.137Z,101869.03
2019-05-07T10:22:55.845Z,101868.61
2019-05-07T10:23:56.705Z,101868.37
2019-05-07T10:24:57.573Z,101868.29
2019-05-07T10:25:58.301Z,101867.83
2019-05-07T10:26:58.359Z,101867.25
2019-05-07T10:27:58.454Z,101867.25
2019-05-07T10:28:58.493Z,101866.48
2019-05-07T10:29:59.401Z,101866.08
2019-05-07T10:31:00.279Z,101866.03
2019-05-07T10:31:08.807Z,101859.56
2019-05-07T10:32:12.620Z,101858.14
2019-05-07T10:33:09.656Z,101858.36
2019-05-07T10:34:12.327Z,101858.14
2019-05-07T10:35:12.791Z,101858.27
2019-05-07T10:36:12.523Z,101858.34
2019-05-07T10:37:12.848Z,101858.69
2019-05-07T10:38:14.585Z,101858.94
2019-05-07T10:39:15.420Z,101858.86
2019-05-07T10:40:16.241Z,101858.39
2019-05-07T10:41:16.566Z,101858.34
2019-05-07T10:42:17.316Z,101858.17
2019-05-07T10:43:18.074Z,101857.55
2019-05-07T10:44:18.853Z,101857.46
2019-05-07T10:45:21.817Z,101857.24
2019-05-07T10:46:19.617Z,101856.64
2019-05-07T10:47:22.291Z,101856.43
2019-05-07T10:48:22.069Z,101856.45
2019-05-07T10:49:22.611Z,101855.98
2019-05-07T10:50:35.580Z,101855.11
2019-05-07T10:51:23.440Z,101855.20
2019-05-07T10:52:25.357Z,101854.45
2019-05-07T10:53:25.519Z,101854.41
2019-05-07T10:54:26.223Z,101853.63
2019-05-07T10:55:27.208Z,101853.41
2019-05-07T10:56:27.954Z,101853.52
2019-05-07T10:57:28.712Z,101852.91
2019-05-07T10:58:29.531Z,101852.30
2019-05-07T10:59:30.266Z,101852.24
2019-05-07T11:00:32.933Z,101851.29
2019-05-07T11:01:32.763Z,101850.59
2019-05-07T11:02:32.444Z,101850.53
2019-05-07T11:03:32.564Z,101850.14
2019-05-07T11:04:42.267Z,101849.73
2019-05-07T11:05:33.995Z,101849.07
2019-05-07T11:06:34.993Z,101848.28
2019-05-07T11:07:35.718Z,101847.67
2019-05-07T11:08:36.520Z,101847.14
2019-05-07T11:09:37.513Z,101846.56
2019-05-07T11:10:38.190Z,101845.83
2019-05-07T11:11:39.057Z,101845.35
2019-05-07T11:12:39.872Z,101844.52
2019-05-07T11:13:42.222Z,101844.21
2019-05-07T11:14:40.222Z,101843.04
2019-05-07T11:15:42.906Z,101842.35
2019-05-07T11:16:40.533Z,101840.98
2019-05-07T11:17:42.255Z,101839.83
2019-05-07T11:18:42.678Z,101838.55
2019-05-07T11:19:42.029Z,101837.94
2019-05-07T11:20:49.733Z,101836.44
2019-05-07T11:21:43.572Z,101835.61
2019-05-07T11:22:44.853Z,101835.09
2019-05-07T11:23:44.996Z,101833.75